KBIL

Billings Logan International Airport

Billings, Montana, USA
METAR KBIL 162253Z 01005KT 2SM -SN BR SCT007 OVC034 M01/M02 A3001 RMK AO2 SFC VIS 2 1/2 SLP193 P0000 T10111017
Observed Flight Rules
Dec-16 @ 22:53 UTC (an hour ago) Instrument Flight Rules
Wind Visibility Clouds Conditions
10° at 5 knots 2 miles
  • Scattered at 700' AGL
  • Overcast at 3,400' AGL
  • Light Snow
  • Mist
Temperatures Readings Precipitation
Current -1°C / 30°F
Dewpoint -2°C / 28°F
Humidity 93%
Altimeter 30.01" Hg
Pressure 1019.3 hPa
Elevation 1091
Current Rain 0.005
METAR KBIL 162253Z 01005KT 2SM -SN BR SCT007 OVC034 M01/M02 A3001 RMK AO2 SFC VIS 2 1/2 SLP193 P0000 T10111017
Observed Flight Rules
Dec-16 @ 22:53 UTC
(an hour ago)
IFR
Wind Visibility
10° at 5 knots 2 miles
Clouds
  • Scattered at 700' AGL
  • Overcast at 3,400' AGL
Conditions
  • Light Snow
  • Mist
Temperature Dewpoint
-1°C / 30°F -2°C / 28°F
Humidity Altimeter Pressure
93% 30.01" Hg 1019.3 hPa
Current Rain
0.005